Time;durP1;ratioP1;P1;durP2;ratioP2;P2;SDS_P1;SDS_P2;PMS_P1;PMS_P2;Temp;Humidity;BMP_temperature;BMP_pressure;BME280_temperature;BME280_humidity;BME280_pressure;Samples;Min_cycle;Max_cycle;Signal;HPM_P1;HPM_P2
2020/12/13 00:01:09;;;;;;;7.25;5.00;;;7.00;99.90;;;;;;4955289;28;20087;-85
2020/12/13 00:03:36;;;;;;;7.55;4.70;;;7.10;99.90;;;;;;4958261;29;20134;-85
2020/12/13 00:06:03;;;;;;;7.53;4.68;;;6.90;99.90;;;;;;4958691;28;20141;-85
2020/12/13 00:08:29;;;;;;;8.15;5.00;;;7.00;99.90;;;;;;4958149;28;20161;-85
2020/12/13 00:10:56;;;;;;;7.05;4.60;;;7.00;99.90;;;;;;4958583;29;20134;-85
2020/12/13 00:13:24;;;;;;;8.45;5.47;;;7.00;99.90;;;;;;4957826;28;20059;-85
2020/12/13 00:15:50;;;;;;;7.97;4.97;;;7.00;99.90;;;;;;4957697;29;20130;-85
2020/12/13 00:18:17;;;;;;;8.48;4.78;;;7.00;99.90;;;;;;4957870;29;20628;-86
2020/12/13 00:20:44;;;;;;;9.75;5.20;;;7.00;99.90;;;;;;4957494;29;20133;-85
2020/12/13 00:23:10;;;;;;;7.28;4.53;;;7.00;99.90;;;;;;4958248;28;20133;-86
2020/12/13 00:25:37;;;;;;;7.07;4.80;;;7.00;99.90;;;;;;4958007;29;20580;-85
2020/12/13 00:28:03;;;;;;;7.00;4.70;;;7.00;99.90;;;;;;4957389;28;20475;-86
2020/12/13 00:30:31;;;;;;;6.90;4.50;;;6.90;99.90;;;;;;4957483;28;20573;-86
2020/12/13 00:32:58;;;;;;;7.80;4.57;;;6.80;99.90;;;;;;4958284;29;20146;-85
2020/12/13 00:35:24;;;;;;;7.03;4.43;;;6.80;99.90;;;;;;4957909;29;20106;-85
2020/12/13 00:37:51;;;;;;;6.97;4.10;;;7.00;99.90;;;;;;4957768;28;20047;-85
2020/12/13 00:40:18;;;;;;;6.38;3.97;;;7.00;99.90;;;;;;4957011;28;20130;-86
2020/12/13 00:42:45;;;;;;;6.80;4.40;;;7.00;99.90;;;;;;4958177;29;20098;-86
2020/12/13 00:45:11;;;;;;;6.47;4.20;;;7.00;99.90;;;;;;4957726;28;20142;-86
2020/12/13 00:47:39;;;;;;;6.60;4.20;;;7.20;99.90;;;;;;4957909;29;20130;-86
2020/12/13 00:50:05;;;;;;;6.40;4.60;;;7.10;99.90;;;;;;4957803;28;20139;-87
2020/12/13 00:52:32;;;;;;;6.55;3.92;;;7.30;99.90;;;;;;4957434;29;20564;-86
2020/12/13 00:54:58;;;;;;;6.82;4.07;;;7.10;99.90;;;;;;4956764;29;20130;-85
2020/12/13 00:57:25;;;;;;;7.40;4.47;;;7.20;99.90;;;;;;4957321;28;20469;-85
2020/12/13 00:59:52;;;;;;;6.57;3.97;;;7.20;99.90;;;;;;4957384;29;20581;-85
2020/12/13 01:02:18;;;;;;;6.20;3.78;;;7.10;99.90;;;;;;4957139;28;20146;-85
2020/12/13 01:04:46;;;;;;;7.95;3.55;;;7.00;99.90;;;;;;4965368;28;20115;-85
2020/12/13 01:07:13;;;;;;;7.80;3.40;;;7.20;99.90;;;;;;4967173;29;20051;-85
2020/12/13 01:09:40;;;;;;;5.95;3.50;;;7.20;99.90;;;;;;4966444;29;20078;-85
2020/12/13 01:12:07;;;;;;;7.15;3.63;;;7.20;99.90;;;;;;4966710;28;20128;-85
2020/12/13 01:14:33;;;;;;;5.45;4.00;;;7.20;99.90;;;;;;4967652;29;20047;-86
2020/12/13 01:17:00;;;;;;;7.43;4.15;;;7.30;99.90;;;;;;4966620;28;20142;-85
2020/12/13 01:19:26;;;;;;;5.43;3.65;;;7.30;99.90;;;;;;4965849;28;20089;-85
2020/12/13 01:21:56;;;;;;;6.10;3.58;;;7.30;99.90;;;;;;4965958;29;20130;-85
2020/12/13 01:24:22;;;;;;;6.25;3.72;;;7.30;99.90;;;;;;4967128;29;20078;-85
2020/12/13 01:26:49;;;;;;;6.03;3.63;;;7.30;99.90;;;;;;4966876;28;20544;-85
2020/12/13 01:29:15;;;;;;;6.90;3.65;;;7.40;99.90;;;;;;4966333;28;20082;-84
2020/12/13 01:31:42;;;;;;;5.72;3.45;;;7.30;99.90;;;;;;4960491;28;20103;-84
2020/12/13 01:34:09;;;;;;;7.57;3.80;;;7.30;99.90;;;;;;4956267;28;20468;-85
2020/12/13 01:36:35;;;;;;;7.15;3.80;;;7.30;99.90;;;;;;4956849;28;20134;-85
2020/12/13 01:39:04;;;;;;;5.65;3.45;;;7.30;99.90;;;;;;4957121;28;20142;-84
2020/12/13 01:41:30;;;;;;;6.82;3.38;;;7.40;99.90;;;;;;4955900;29;20051;-84
2020/12/13 01:44:00;;;;;;;5.57;3.25;;;7.40;99.90;;;;;;4956693;28;20130;-85
2020/12/13 01:46:28;;;;;;;7.07;3.55;;;7.40;99.90;;;;;;4956657;28;20054;-84
2020/12/13 01:49:00;;;;;;;6.20;3.38;;;7.50;99.90;;;;;;4955990;28;20573;-85
2020/12/13 01:51:43;;;;;;;5.78;3.50;;;7.50;99.90;;;;;;4956863;29;20083;-85
2020/12/13 01:54:13;;;;;;;6.13;3.85;;;7.40;99.90;;;;;;4956836;29;20078;-85
2020/12/13 01:56:54;;;;;;;6.00;3.67;;;7.40;99.90;;;;;;4956320;29;20090;-85
2020/12/13 01:59:22;;;;;;;7.07;3.40;;;7.40;99.90;;;;;;4956032;29;20059;-85
2020/12/13 02:01:53;;;;;;;5.82;3.60;;;7.30;99.90;;;;;;4956644;28;20082;-85
2020/12/13 02:04:22;;;;;;;7.30;4.18;;;7.30;99.90;;;;;;4955411;29;20136;-84
2020/12/13 02:06:52;;;;;;;6.53;3.47;;;7.30;99.90;;;;;;4955320;28;20054;-84
2020/12/13 02:09:20;;;;;;;7.00;3.97;;;7.30;99.90;;;;;;4956252;29;20053;-84
2020/12/13 02:11:47;;;;;;;6.63;3.55;;;7.30;99.90;;;;;;4956147;29;20137;-84
2020/12/13 02:14:14;;;;;;;7.72;4.15;;;7.40;99.90;;;;;;4955817;29;20130;-84
2020/12/13 02:16:43;;;;;;;7.07;3.85;;;7.40;99.90;;;;;;4955927;28;20130;-84
2020/12/13 02:19:11;;;;;;;6.68;4.10;;;7.40;99.90;;;;;;4955446;29;20467;-84
2020/12/13 02:21:43;;;;;;;7.07;3.63;;;7.30;99.90;;;;;;4955167;29;20082;-85
2020/12/13 02:24:11;;;;;;;4.75;3.10;;;7.40;99.90;;;;;;4955257;28;20140;-85
2020/12/13 02:26:40;;;;;;;6.38;3.78;;;7.30;99.90;;;;;;4955630;28;20138;-84
2020/12/13 02:29:07;;;;;;;5.85;3.42;;;7.50;99.90;;;;;;4955616;29;20137;-85
2020/12/13 02:31:34;;;;;;;6.20;3.50;;;7.20;99.90;;;;;;4956006;28;20147;-85
2020/12/13 02:34:01;;;;;;;6.07;3.42;;;7.30;99.90;;;;;;4955025;29;20480;-86
2020/12/13 02:36:28;;;;;;;6.65;3.53;;;7.30;99.90;;;;;;4956288;28;20058;-85
2020/12/13 02:38:55;;;;;;;5.70;3.25;;;7.30;99.90;;;;;;4956213;29;20162;-85
2020/12/13 02:41:22;;;;;;;5.47;3.80;;;7.40;99.90;;;;;;4955805;28;20475;-86
2020/12/13 02:43:49;;;;;;;5.15;3.15;;;7.40;99.90;;;;;;4955586;29;20110;-86
2020/12/13 02:46:15;;;;;;;5.55;3.20;;;7.30;99.90;;;;;;4955265;28;20135;-85
2020/12/13 02:48:42;;;;;;;5.63;3.20;;;7.30;99.90;;;;;;4954945;28;20139;-85
2020/12/13 02:51:09;;;;;;;5.85;3.10;;;7.30;99.90;;;;;;4955184;29;20075;-84
2020/12/13 02:53:35;;;;;;;5.25;2.95;;;7.30;99.90;;;;;;4955208;29;20548;-85
2020/12/13 02:56:02;;;;;;;5.55;3.33;;;7.30;99.90;;;;;;4955457;29;20135;-85
2020/12/13 02:58:29;;;;;;;4.82;2.88;;;7.30;99.90;;;;;;4955175;28;20141;-86
2020/12/13 03:00:56;;;;;;;6.13;3.20;;;7.30;99.90;;;;;;4954988;29;20142;-86
2020/12/13 03:03:23;;;;;;;6.60;3.10;;;7.30;99.90;;;;;;4955458;29;20090;-86
2020/12/13 03:05:49;;;;;;;6.53;3.00;;;7.20;99.90;;;;;;4955124;28;20129;-86
2020/12/13 03:08:16;;;;;;;6.13;3.38;;;7.30;99.90;;;;;;4955952;29;20130;-85
2020/12/13 03:10:42;;;;;;;6.22;3.20;;;7.10;99.90;;;;;;4955813;28;20130;-85
2020/12/13 03:13:09;;;;;;;5.68;3.38;;;7.20;99.90;;;;;;4955783;29;20142;-86
2020/12/13 03:15:36;;;;;;;8.05;4.13;;;7.20;99.90;;;;;;4954477;29;20138;-85
2020/12/13 03:18:03;;;;;;;6.88;3.70;;;7.20;99.90;;;;;;4955657;28;20138;-86
2020/12/13 03:20:30;;;;;;;4.80;2.88;;;7.20;99.90;;;;;;4955187;28;20143;-85
2020/12/13 03:22:56;;;;;;;5.20;3.17;;;7.20;99.90;;;;;;4955783;29;20047;-85
2020/12/13 03:25:23;;;;;;;7.20;3.78;;;7.10;99.90;;;;;;4955325;29;20061;-85
2020/12/13 03:27:49;;;;;;;6.80;3.50;;;7.20;99.90;;;;;;4953593;29;20461;-85
2020/12/13 03:30:16;;;;;;;5.00;3.28;;;7.20;99.90;;;;;;4954607;29;20166;-85
2020/12/13 03:32:43;;;;;;;5.43;3.13;;;7.30;99.90;;;;;;4955491;28;20150;-85
2020/12/13 03:35:10;;;;;;;4.88;3.20;;;7.30;99.90;;;;;;4955866;28;20180;-85
2020/12/13 03:37:36;;;;;;;5.63;3.15;;;7.40;99.90;;;;;;4958969;29;20138;-86
2020/12/13 03:40:03;;;;;;;5.88;3.15;;;7.30;99.90;;;;;;4959239;29;20083;-85
2020/12/13 03:42:30;;;;;;;5.28;3.20;;;7.20;99.90;;;;;;4958235;28;20485;-85
2020/12/13 03:44:56;;;;;;;5.85;3.08;;;7.20;99.90;;;;;;4942173;29;20579;-84
2020/12/13 03:47:23;;;;;;;6.15;3.50;;;7.10;99.90;;;;;;4958386;29;20138;-85
2020/12/13 03:49:50;;;;;;;6.13;3.40;;;7.30;99.90;;;;;;4944230;29;20138;-86
2020/12/13 03:52:17;;;;;;;8.45;4.85;;;7.30;99.90;;;;;;4959210;29;20058;-85
2020/12/13 03:54:43;;;;;;;6.20;3.50;;;7.20;99.90;;;;;;4958063;28;20474;-85
2020/12/13 03:57:10;;;;;;;6.30;3.50;;;7.40;99.90;;;;;;4959143;28;20094;-84
2020/12/13 03:59:37;;;;;;;6.00;3.50;;;7.20;99.90;;;;;;4958448;29;20087;-85
2020/12/13 04:02:04;;;;;;;5.47;2.95;;;7.30;99.90;;;;;;4958740;29;20467;-85
2020/12/13 04:04:31;;;;;;;5.20;3.10;;;7.30;99.90;;;;;;4958411;29;20047;-85
2020/12/13 04:06:58;;;;;;;7.47;3.38;;;7.30;99.90;;;;;;4941023;29;20059;-84
2020/12/13 04:09:25;;;;;;;5.22;3.10;;;7.30;99.90;;;;;;4956257;28;20051;-85
2020/12/13 04:11:52;;;;;;;5.72;3.28;;;7.10;99.90;;;;;;4958249;28;20055;-85
2020/12/13 04:14:18;;;;;;;6.18;3.05;;;7.20;99.90;;;;;;4958542;28;20134;-85
2020/12/13 04:16:45;;;;;;;4.70;3.00;;;7.30;99.90;;;;;;4958274;28;20142;-84
2020/12/13 04:19:11;;;;;;;6.20;3.45;;;7.20;99.90;;;;;;4958372;29;20060;-84
2020/12/13 04:21:38;;;;;;;5.13;2.78;;;7.30;99.90;;;;;;4958951;28;20588;-84
2020/12/13 04:24:06;;;;;;;5.28;2.92;;;7.20;99.90;;;;;;4961490;29;20047;-85
2020/12/13 04:26:33;;;;;;;5.68;2.80;;;7.00;99.90;;;;;;4963593;28;20051;-87
2020/12/13 04:29:00;;;;;;;4.32;2.78;;;7.20;99.90;;;;;;4963360;29;20083;-86
2020/12/13 04:31:26;;;;;;;5.75;3.33;;;7.20;99.90;;;;;;4968229;28;20055;-85
2020/12/13 04:33:53;;;;;;;5.47;2.97;;;7.20;99.90;;;;;;4968496;28;20122;-86
2020/12/13 04:36:20;;;;;;;5.07;3.03;;;7.20;99.90;;;;;;4964599;29;20500;-86
2020/12/13 04:38:47;;;;;;;4.78;2.90;;;7.20;99.90;;;;;;4957699;29;20132;-84
2020/12/13 04:41:14;;;;;;;4.53;2.38;;;7.20;99.90;;;;;;4958230;28;20323;-85
2020/12/13 04:43:41;;;;;;;4.55;2.83;;;7.20;99.90;;;;;;4957807;28;20133;-85
2020/12/13 04:46:08;;;;;;;4.97;2.78;;;7.20;99.90;;;;;;4957543;28;20122;-86
2020/12/13 04:48:35;;;;;;;5.13;2.83;;;7.30;99.90;;;;;;4958183;28;20048;-85
2020/12/13 04:51:04;;;;;;;4.32;2.50;;;7.20;99.90;;;;;;4957755;28;20138;-85
2020/12/13 04:53:33;;;;;;;5.43;2.58;;;7.30;99.90;;;;;;4958339;28;20581;-85
2020/12/13 04:56:01;;;;;;;4.22;2.67;;;7.20;99.90;;;;;;4958137;28;20577;-86
2020/12/13 04:58:29;;;;;;;4.68;2.65;;;7.20;99.90;;;;;;4957741;28;20094;-86
2020/12/13 05:00:58;;;;;;;4.80;2.83;;;7.10;99.90;;;;;;4958303;29;20077;-85
2020/12/13 05:03:26;;;;;;;4.90;2.83;;;7.20;99.90;;;;;;4956872;28;20126;-85
2020/12/13 05:05:57;;;;;;;5.38;2.60;;;7.10;99.90;;;;;;4962583;28;20133;-82
2020/12/13 05:08:24;;;;;;;5.35;2.63;;;7.30;99.90;;;;;;4960642;29;20566;-84
2020/12/13 05:10:51;;;;;;;5.05;2.80;;;7.20;99.90;;;;;;4959072;28;20448;-84
2020/12/13 05:13:18;;;;;;;4.63;2.53;;;7.30;99.90;;;;;;4958761;28;20051;-84
2020/12/13 05:15:45;;;;;;;5.07;2.40;;;7.30;99.90;;;;;;4957786;28;20576;-85
2020/12/13 05:18:13;;;;;;;4.05;2.22;;;7.40;99.90;;;;;;4956818;28;20058;-84
2020/12/13 05:20:39;;;;;;;5.15;2.22;;;7.30;99.90;;;;;;4957999;28;20135;-84
2020/12/13 05:23:07;;;;;;;4.43;2.50;;;7.30;99.90;;;;;;4959051;29;20584;-84
2020/12/13 05:25:36;;;;;;;4.53;2.50;;;7.30;99.90;;;;;;4959258;28;20086;-84
2020/12/13 05:28:06;;;;;;;5.13;2.42;;;7.30;99.90;;;;;;4958781;28;20129;-86
2020/12/13 05:30:37;;;;;;;4.85;2.30;;;7.30;99.90;;;;;;4960429;28;20050;-85
2020/12/13 05:33:10;;;;;;;4.75;2.50;;;7.40;99.90;;;;;;4957722;29;20059;-86
2020/12/13 05:35:37;;;;;;;4.30;2.40;;;7.50;99.90;;;;;;4942736;29;20054;-84
2020/12/13 05:38:11;;;;;;;4.40;2.40;;;7.30;99.90;;;;;;4942083;29;20051;-85
2020/12/13 05:40:38;;;;;;;5.43;2.45;;;7.30;99.90;;;;;;4940029;29;20130;-88
2020/12/13 05:43:09;;;;;;;4.25;2.05;;;7.20;99.90;;;;;;4942543;29;20047;-85
2020/12/13 05:46:05;;;;;;;4.95;2.35;;;7.20;99.90;;;;;;4958854;29;20565;-85
2020/12/13 05:51:37;;;;;;;4.70;2.30;;;7.30;99.90;;;;;;4956547;29;20050;-85
2020/12/13 05:54:08;;;;;;;4.80;2.40;;;7.30;99.90;;;;;;4959712;28;20061;-85
2020/12/13 05:56:35;;;;;;;4.15;2.35;;;7.30;99.90;;;;;;4964235;29;20167;-86
2020/12/13 05:59:03;;;;;;;4.53;2.60;;;7.20;99.90;;;;;;4957281;28;20453;-85
2020/12/13 06:01:31;;;;;;;4.38;2.20;;;7.20;99.90;;;;;;4957011;29;20139;-85
2020/12/13 06:04:00;;;;;;;4.32;2.05;;;7.20;99.90;;;;;;4956612;28;20138;-85
2020/12/13 06:06:27;;;;;;;4.50;2.22;;;7.20;99.90;;;;;;4948998;28;20056;-86
2020/12/13 06:09:08;;;;;;;3.95;2.20;;;7.30;99.90;;;;;;4965623;28;20086;-86
2020/12/13 06:11:38;;;;;;;4.32;2.03;;;7.40;99.90;;;;;;4945695;29;20079;-86
2020/12/13 06:14:15;;;;;;;4.65;2.10;;;7.20;99.90;;;;;;4957115;28;20075;-86
2020/12/13 06:16:42;;;;;;;4.35;1.60;;;7.30;99.90;;;;;;4965096;28;20069;-88
2020/12/13 06:19:13;;;;;;;3.55;1.60;;;7.20;99.90;;;;;;4967580;28;20138;-87
2020/12/13 06:21:40;;;;;;;3.00;1.63;;;7.20;99.90;;;;;;4968786;28;20133;-87
2020/12/13 06:24:08;;;;;;;3.65;1.77;;;7.30;99.90;;;;;;4962381;28;20573;-86
2020/12/13 06:26:36;;;;;;;4.28;1.70;;;7.30;99.90;;;;;;4969605;28;20090;-93
2020/12/13 06:29:05;;;;;;;3.45;1.90;;;7.30;99.90;;;;;;4940678;29;20146;-89
2020/12/13 06:31:33;;;;;;;4.00;1.80;;;7.40;99.90;;;;;;4958939;28;20066;-90
2020/12/13 06:34:01;;;;;;;3.63;1.67;;;7.30;99.80;;;;;;4954371;28;20094;-90
2020/12/13 06:36:32;;;;;;;3.83;1.80;;;7.30;99.90;;;;;;4959583;28;20059;-90
2020/12/13 06:38:59;;;;;;;4.47;1.67;;;7.30;99.90;;;;;;4972684;28;20111;-89
2020/12/13 06:41:27;;;;;;;4.10;1.60;;;7.30;99.90;;;;;;4958185;28;20055;-90
2020/12/13 06:44:04;;;;;;;3.50;1.65;;;7.40;99.90;;;;;;4966562;28;20055;-89
2020/12/13 06:46:31;;;;;;;3.53;1.77;;;7.30;99.90;;;;;;4966439;28;20141;-91
2020/12/13 06:48:59;;;;;;;4.00;1.85;;;7.20;99.90;;;;;;4968291;28;20138;-91
2020/12/13 06:51:30;;;;;;;3.85;1.95;;;7.30;99.90;;;;;;4959737;28;20086;-92
2020/12/13 06:53:59;;;;;;;3.08;1.50;;;7.30;99.90;;;;;;4944626;29;20134;-90
2020/12/13 06:56:26;;;;;;;3.60;1.85;;;7.30;99.90;;;;;;4954124;28;20089;-90
2020/12/13 06:58:58;;;;;;;4.30;1.83;;;7.40;99.90;;;;;;4960910;28;20111;-91
2020/12/13 07:01:28;;;;;;;3.50;1.70;;;7.30;99.90;;;;;;4956615;28;20043;-90
2020/12/13 07:03:58;;;;;;;3.55;1.77;;;7.40;99.90;;;;;;4955615;28;20143;-90
2020/12/13 07:06:44;;;;;;;3.72;1.80;;;7.20;99.90;;;;;;4938379;29;20039;-90
2020/12/13 07:09:13;;;;;;;3.90;2.08;;;7.20;99.90;;;;;;4954661;29;20047;-87
2020/12/13 07:11:42;;;;;;;4.47;2.10;;;7.20;99.90;;;;;;4953560;28;20058;-86
2020/12/13 07:14:13;;;;;;;4.05;2.20;;;7.20;99.90;;;;;;4955760;28;20228;-87
2020/12/13 07:16:45;;;;;;;3.30;1.90;;;7.20;99.90;;;;;;4956178;29;20115;-88
2020/12/13 07:19:13;;;;;;;3.55;1.80;;;7.20;99.90;;;;;;4956216;29;20126;-87
2020/12/13 07:21:42;;;;;;;3.05;1.77;;;7.30;99.90;;;;;;4957949;29;20119;-88
2020/12/13 07:24:11;;;;;;;4.85;2.08;;;7.20;99.90;;;;;;4957320;29;20078;-87
2020/12/13 07:26:39;;;;;;;3.67;1.90;;;7.40;99.90;;;;;;4935524;29;20055;-87
2020/12/13 07:29:14;;;;;;;3.47;1.70;;;7.30;99.90;;;;;;4967170;28;20119;-87
2020/12/13 07:31:45;;;;;;;3.83;1.75;;;7.40;99.90;;;;;;4955611;28;20109;-87
2020/12/13 07:34:12;;;;;;;3.80;1.83;;;7.30;99.90;;;;;;4941934;29;20508;-86
2020/12/13 07:36:38;;;;;;;3.22;1.77;;;7.30;99.90;;;;;;4939039;28;20141;-87
2020/12/13 07:39:07;;;;;;;3.60;1.95;;;7.30;99.90;;;;;;4958976;28;20449;-84
2020/12/13 07:41:35;;;;;;;4.20;2.30;;;7.30;99.90;;;;;;4963979;28;20145;-85
2020/12/13 07:44:05;;;;;;;5.75;2.30;;;7.20;99.90;;;;;;4955956;28;20565;-86
2020/12/13 07:46:34;;;;;;;4.30;2.22;;;7.20;99.90;;;;;;4940224;28;20062;-86
2020/12/13 07:49:13;;;;;;;5.65;2.22;;;7.20;99.90;;;;;;4955615;28;20150;-85
2020/12/13 07:51:42;;;;;;;6.32;2.00;;;7.30;99.90;;;;;;4955473;28;20142;-85
2020/12/13 07:54:11;;;;;;;4.07;2.10;;;7.30;99.90;;;;;;4969189;28;20130;-86
2020/12/13 07:56:42;;;;;;;3.75;2.30;;;7.20;99.90;;;;;;4956510;28;20146;-85
2020/12/13 07:59:14;;;;;;;4.65;2.20;;;7.20;99.90;;;;;;4972666;28;20516;-84
2020/12/13 08:01:43;;;;;;;4.43;2.40;;;7.20;99.90;;;;;;4961421;28;20082;-86
2020/12/13 08:04:10;;;;;;;4.63;2.33;;;7.30;99.90;;;;;;4922976;29;20382;-83
2020/12/13 08:06:37;;;;;;;5.10;2.63;;;7.20;99.90;;;;;;4955428;28;20051;-85
2020/12/13 08:09:12;;;;;;;5.22;2.60;;;7.10;99.90;;;;;;4969617;28;20130;-85
2020/12/13 08:11:40;;;;;;;5.05;2.70;;;7.10;99.90;;;;;;4928301;29;20082;-85
2020/12/13 08:14:08;;;;;;;3.80;2.33;;;7.30;99.90;;;;;;4958769;28;20114;-85
2020/12/13 08:16:36;;;;;;;4.40;2.38;;;7.30;99.90;;;;;;4933955;29;20146;-86
2020/12/13 08:19:13;;;;;;;4.60;2.42;;;7.20;99.90;;;;;;4955846;29;20087;-87
2020/12/13 08:21:54;;;;;;;4.00;2.38;;;7.30;99.90;;;;;;4939237;29;20138;-90
2020/12/13 08:24:21;;;;;;;3.95;2.15;;;7.30;99.90;;;;;;4959428;29;20138;-91
2020/12/13 08:26:53;;;;;;;3.97;2.20;;;7.40;99.90;;;;;;4954596;28;20063;-89
2020/12/13 08:29:21;;;;;;;3.88;2.22;;;7.40;99.90;;;;;;4964619;28;20089;-90
2020/12/13 08:31:51;;;;;;;4.28;2.33;;;7.40;99.90;;;;;;4951539;29;20063;-91
2020/12/13 08:34:24;;;;;;;4.20;2.38;;;7.40;99.90;;;;;;4963108;28;20055;-90
2020/12/13 08:36:53;;;;;;;4.38;2.70;;;7.40;99.90;;;;;;4952968;29;20493;-92
2020/12/13 08:39:28;;;;;;;4.25;2.60;;;7.60;99.90;;;;;;4958496;29;20474;-91
2020/12/13 08:41:57;;;;;;;4.15;2.47;;;7.40;99.90;;;;;;4949516;29;20110;-89
2020/12/13 08:44:31;;;;;;;3.85;2.22;;;7.50;99.90;;;;;;4928689;28;20051;-92
2020/12/13 08:46:59;;;;;;;4.43;2.70;;;7.40;99.90;;;;;;4941835;29;20062;-89
2020/12/13 08:49:32;;;;;;;4.20;2.70;;;7.40;99.90;;;;;;4943519;28;20557;-88
2020/12/13 08:52:13;;;;;;;4.60;2.50;;;7.50;99.90;;;;;;4927618;29;20047;-90
2020/12/13 08:54:51;;;;;;;4.00;2.30;;;7.60;99.90;;;;;;4932514;29;20079;-89
2020/12/13 08:57:30;;;;;;;4.72;2.67;;;7.80;99.80;;;;;;4968390;28;20479;-88
2020/12/13 08:59:59;;;;;;;3.97;2.20;;;7.70;99.90;;;;;;4964228;28;20411;-89
2020/12/13 09:02:28;;;;;;;4.65;2.22;;;7.70;99.50;;;;;;4962318;28;20126;-96
2020/12/13 09:04:56;;;;;;;4.72;2.45;;;7.80;99.30;;;;;;4946274;29;20083;-96
2020/12/13 09:07:23;;;;;;;5.00;2.50;;;7.70;99.10;;;;;;4978826;28;20059;-96
2020/12/13 09:09:50;;;;;;;5.07;2.35;;;7.70;99.10;;;;;;4971127;29;20043;-96
2020/12/13 09:12:28;;;;;;;4.22;2.58;;;7.80;99.10;;;;;;4973547;28;20078;-96
2020/12/13 09:14:56;;;;;;;4.18;2.30;;;7.70;99.10;;;;;;4944784;28;20091;-96
2020/12/13 09:17:24;;;;;;;4.78;2.20;;;7.80;99.00;;;;;;4972716;28;20064;-92
2020/12/13 09:19:52;;;;;;;5.13;2.40;;;7.90;98.70;;;;;;4952916;29;20067;-89
2020/12/13 09:22:21;;;;;;;6.03;2.78;;;7.90;98.90;;;;;;4941346;29;20051;-91
2020/12/13 09:24:49;;;;;;;4.78;2.35;;;7.90;99.30;;;;;;4957784;29;20055;-90
2020/12/13 09:27:22;;;;;;;5.72;2.60;;;7.90;98.70;;;;;;4953105;28;20521;-89
2020/12/13 09:29:51;;;;;;;4.18;2.45;;;8.00;98.70;;;;;;4957846;29;20047;-89
2020/12/13 09:32:20;;;;;;;5.28;2.75;;;8.00;98.50;;;;;;4955383;28;20228;-83
2020/12/13 09:34:49;;;;;;;5.28;2.97;;;8.10;98.50;;;;;;4955913;29;20130;-87
2020/12/13 09:37:18;;;;;;;4.70;2.60;;;8.20;98.20;;;;;;4957336;29;20113;-87
2020/12/13 09:39:45;;;;;;;5.03;2.65;;;8.10;98.20;;;;;;4957817;29;20138;-95
2020/12/13 09:42:13;;;;;;;4.95;2.50;;;8.10;98.20;;;;;;4956916;28;20051;-83
2020/12/13 09:44:44;;;;;;;6.05;2.53;;;8.10;98.20;;;;;;4954991;29;20095;-89
2020/12/13 09:47:11;;;;;;;7.32;3.22;;;8.10;98.20;;;;;;4955244;29;20106;-83
2020/12/13 09:49:38;;;;;;;5.20;2.58;;;8.10;98.10;;;;;;4950840;28;20147;-81
2020/12/13 09:52:05;;;;;;;4.97;2.70;;;8.20;97.80;;;;;;4952682;28;20133;-85
2020/12/13 09:54:32;;;;;;;6.13;2.70;;;8.30;97.80;;;;;;4959237;28;20129;-82
2020/12/13 09:56:59;;;;;;;5.53;2.28;;;8.30;97.80;;;;;;4944101;28;20050;-85
2020/12/13 09:59:26;;;;;;;6.72;2.90;;;8.20;97.30;;;;;;4949932;28;20043;-83
2020/12/13 10:01:53;;;;;;;7.78;4.03;;;8.40;97.40;;;;;;4949701;29;20083;-85
2020/12/13 10:04:22;;;;;;;6.93;2.90;;;8.40;97.10;;;;;;4922137;29;20146;-85
2020/12/13 10:07:05;;;;;;;3.63;2.17;;;8.60;97.10;;;;;;4960648;28;20065;-87
2020/12/13 10:09:31;;;;;;;4.53;2.38;;;8.60;96.80;;;;;;4956112;28;20086;-87
2020/12/13 10:12:01;;;;;;;4.35;2.10;;;8.60;96.90;;;;;;4956949;28;20059;-87
2020/12/13 10:14:27;;;;;;;4.25;2.28;;;8.60;96.60;;;;;;4953294;28;20054;-85
2020/12/13 10:16:54;;;;;;;3.50;2.10;;;8.70;96.40;;;;;;4954449;28;20059;-83
2020/12/13 10:19:21;;;;;;;4.70;2.20;;;8.80;96.60;;;;;;4958071;28;20043;-85
2020/12/13 10:21:49;;;;;;;4.13;2.35;;;8.70;96.40;;;;;;4962051;28;20138;-83
2020/12/13 10:24:15;;;;;;;4.38;2.40;;;8.70;96.30;;;;;;4958357;28;20122;-84
2020/12/13 10:26:42;;;;;;;4.45;2.38;;;8.70;97.00;;;;;;4957939;28;20579;-83
2020/12/13 10:29:10;;;;;;;4.18;2.22;;;8.70;96.30;;;;;;4966784;28;20153;-86
2020/12/13 10:31:41;;;;;;;4.07;2.13;;;8.70;96.40;;;;;;4957960;28;20059;-84
2020/12/13 10:34:10;;;;;;;4.55;2.40;;;8.60;95.90;;;;;;4955374;29;20043;-84
2020/12/13 10:36:39;;;;;;;5.05;2.55;;;8.70;96.30;;;;;;4956309;29;20154;-83
2020/12/13 10:39:08;;;;;;;4.07;2.35;;;8.60;96.20;;;;;;4953643;28;20770;-84
2020/12/13 10:41:35;;;;;;;5.22;2.50;;;8.70;96.30;;;;;;4958442;28;20130;-83
2020/12/13 10:44:02;;;;;;;4.35;2.30;;;8.90;96.00;;;;;;4965323;28;20142;-85
2020/12/13 10:46:29;;;;;;;4.70;2.22;;;8.90;96.00;;;;;;4955493;28;20130;-86
2020/12/13 10:48:56;;;;;;;4.80;2.30;;;8.90;95.40;;;;;;4959591;28;20147;-86
2020/12/13 10:51:23;;;;;;;4.65;2.10;;;9.00;95.80;;;;;;4969895;28;20450;-85
2020/12/13 10:53:49;;;;;;;4.88;2.10;;;9.00;95.10;;;;;;4955148;28;20126;-87
2020/12/13 10:56:17;;;;;;;4.90;2.10;;;8.80;95.50;;;;;;4954643;29;20066;-86
2020/12/13 10:58:44;;;;;;;4.00;2.03;;;8.90;95.20;;;;;;4956428;29;20061;-91
2020/12/13 11:01:12;;;;;;;4.15;1.98;;;8.90;95.20;;;;;;4939649;29;20404;-89
2020/12/13 11:03:39;;;;;;;3.95;1.95;;;8.80;95.00;;;;;;4956204;29;20074;-90
2020/12/13 11:06:09;;;;;;;4.13;1.85;;;8.90;94.80;;;;;;4956073;28;20158;-90
2020/12/13 11:08:36;;;;;;;3.53;1.88;;;8.90;95.00;;;;;;4956309;28;20031;-90
2020/12/13 11:11:04;;;;;;;3.55;1.80;;;8.80;94.70;;;;;;4954643;29;20465;-87
2020/12/13 11:13:31;;;;;;;4.68;1.65;;;9.00;95.00;;;;;;4955520;28;20460;-86
2020/12/13 11:15:58;;;;;;;2.95;1.50;;;9.00;95.60;;;;;;4954867;29;20138;-86
2020/12/13 11:18:29;;;;;;;3.72;2.00;;;9.00;94.00;;;;;;4922409;29;20054;-86
2020/12/13 11:20:57;;;;;;;3.83;1.50;;;9.00;94.60;;;;;;4923608;29;20062;-86
2020/12/13 11:23:23;;;;;;;2.97;1.40;;;8.90;93.80;;;;;;4954032;29;20129;-85
2020/12/13 11:25:50;;;;;;;3.80;1.20;;;9.00;93.80;;;;;;4954480;29;20130;-85
2020/12/13 11:28:17;;;;;;;3.78;1.35;;;8.80;93.80;;;;;;4954284;29;20569;-84
2020/12/13 11:30:45;;;;;;;2.92;1.45;;;8.70;94.40;;;;;;4954906;28;20464;-85
2020/12/13 11:33:11;;;;;;;2.70;1.27;;;8.80;94.40;;;;;;4940319;29;20082;-84
2020/12/13 11:35:38;;;;;;;3.75;1.10;;;8.70;94.70;;;;;;4942157;29;20179;-88
2020/12/13 11:38:05;;;;;;;3.05;1.30;;;8.60;94.80;;;;;;4918155;28;20138;-87
2020/12/13 11:40:32;;;;;;;2.83;1.42;;;8.60;94.90;;;;;;4955140;28;20549;-83
2020/12/13 11:43:00;;;;;;;2.75;1.38;;;8.60;94.90;;;;;;4964899;29;20097;-83
2020/12/13 11:45:27;;;;;;;3.33;1.25;;;8.70;94.80;;;;;;4947906;29;20055;-84
2020/12/13 11:47:54;;;;;;;3.05;1.08;;;8.60;94.50;;;;;;4946173;29;20082;-83
2020/12/13 11:50:22;;;;;;;3.45;1.50;;;8.70;94.50;;;;;;4922010;29;20130;-83
2020/12/13 11:52:48;;;;;;;3.17;1.45;;;8.70;94.70;;;;;;4953152;29;20142;-81
2020/12/13 11:55:15;;;;;;;6.15;1.20;;;8.70;94.90;;;;;;4954051;28;20593;-84
2020/12/13 11:57:41;;;;;;;4.68;1.50;;;8.70;94.50;;;;;;4957921;28;20127;-79
2020/12/13 12:00:08;;;;;;;4.95;2.10;;;8.70;95.00;;;;;;4958457;29;20155;-80
2020/12/13 12:02:35;;;;;;;4.10;1.60;;;8.80;94.80;;;;;;4958409;28;20130;-81
2020/12/13 12:05:02;;;;;;;3.88;1.60;;;8.80;94.70;;;;;;4957802;29;20130;-82
2020/12/13 12:07:29;;;;;;;3.10;1.42;;;8.80;94.60;;;;;;4958334;28;20151;-80
2020/12/13 12:09:55;;;;;;;5.63;1.70;;;8.80;94.90;;;;;;4958825;28;20130;-82
2020/12/13 12:12:22;;;;;;;4.30;1.70;;;8.80;94.60;;;;;;4958698;28;20135;-81
2020/12/13 12:14:49;;;;;;;141.68;59.15;;;8.70;94.80;;;;;;4960687;28;20103;-90
2020/12/13 12:17:15;;;;;;;15.63;7.35;;;8.90;99.90;;;;;;4959707;29;20051;-89
2020/12/13 12:19:42;;;;;;;10.43;4.63;;;9.20;96.20;;;;;;4958691;28;20078;-87
2020/12/13 12:22:10;;;;;;;11.27;5.05;;;9.60;94.40;;;;;;4959450;28;20408;-88
2020/12/13 12:24:37;;;;;;;4.82;2.00;;;9.80;94.10;;;;;;4958779;28;20043;-81
2020/12/13 12:27:08;;;;;;;3.85;1.95;;;10.00;92.70;;;;;;4940986;29;20102;-84
2020/12/13 12:29:36;;;;;;;3.70;1.77;;;9.80;93.00;;;;;;4958654;29;20404;-80
2020/12/13 12:32:02;;;;;;;4.22;1.98;;;9.50;93.20;;;;;;4957809;28;20062;-79
2020/12/13 12:34:29;;;;;;;6.85;3.00;;;9.50;93.60;;;;;;4956799;28;20138;-79
2020/12/13 12:36:56;;;;;;;4.65;1.90;;;9.50;93.80;;;;;;4954788;28;20047;-81
2020/12/13 12:39:25;;;;;;;4.50;2.15;;;9.40;93.60;;;;;;4954996;28;20510;-83
2020/12/13 12:41:52;;;;;;;5.75;2.13;;;9.30;93.90;;;;;;4948530;28;20058;-80
2020/12/13 12:44:19;;;;;;;5.75;2.38;;;9.40;93.90;;;;;;4955405;28;20051;-81
2020/12/13 12:46:46;;;;;;;4.88;2.38;;;9.30;94.00;;;;;;4939816;29;20051;-81
2020/12/13 12:49:13;;;;;;;5.43;2.25;;;9.30;94.40;;;;;;4956419;29;20050;-82
2020/12/13 12:51:40;;;;;;;4.70;2.50;;;9.30;94.60;;;;;;4958133;28;20130;-81
2020/12/13 12:54:07;;;;;;;4.45;2.50;;;9.40;94.40;;;;;;4956831;28;20520;-81
2020/12/13 12:56:34;;;;;;;4.80;2.33;;;9.30;94.40;;;;;;4939836;29;21673;-81
2020/12/13 12:59:03;;;;;;;6.45;2.65;;;9.10;94.50;;;;;;4933842;29;20058;-80
2020/12/13 13:01:35;;;;;;;5.05;2.72;;;9.20;94.70;;;;;;4941594;29;20053;-81
2020/12/13 13:04:05;;;;;;;5.38;3.03;;;9.30;95.10;;;;;;4956278;29;20048;-82
2020/12/13 13:06:41;;;;;;;6.72;3.05;;;9.30;94.80;;;;;;4924453;29;20547;-82